createdAt,value
2022-08-03T00:00:11.631Z,3.13
2022-08-03T00:05:13.150Z,2.95
2022-08-03T00:10:14.705Z,2.58
2022-08-03T00:15:17.122Z,2.13
2022-08-03T00:20:18.858Z,2.65
2022-08-03T00:25:20.394Z,3.00
2022-08-03T00:30:21.908Z,2.50
2022-08-03T00:35:50.351Z,2.40
2022-08-03T00:40:52.012Z,2.70
2022-08-03T00:45:54.720Z,2.58
2022-08-03T00:50:56.386Z,2.95
2022-08-03T00:55:58.476Z,2.38
2022-08-03T01:01:00.157Z,2.92
2022-08-03T01:06:18.056Z,2.25
2022-08-03T01:11:30.723Z,2.45
2022-08-03T01:16:40.577Z,2.35
2022-08-03T01:22:00.644Z,1.90
2022-08-03T01:27:31.200Z,2.40
2022-08-03T01:32:53.531Z,2.58
2022-08-03T01:38:05.720Z,2.47
2022-08-03T01:43:11.102Z,2.45
2022-08-03T01:48:17.312Z,3.03
2022-08-03T01:53:20.517Z,2.40
2022-08-03T01:58:24.927Z,2.30
2022-08-03T02:03:28.703Z,2.63
2022-08-03T02:08:32.370Z,2.38
2022-08-03T02:13:35.189Z,2.42
2022-08-03T02:18:40.091Z,3.13
2022-08-03T02:23:41.941Z,2.63
2022-08-03T02:28:49.533Z,2.90
2022-08-03T02:33:58.967Z,2.53
2022-08-03T02:39:01.634Z,3.05
2022-08-03T02:44:09.549Z,2.95
2022-08-03T02:49:49.501Z,2.63
2022-08-03T02:54:37.493Z,3.00
2022-08-03T02:59:41.002Z,3.03
2022-08-03T03:05:50.629Z,2.92
2022-08-03T03:10:07.189Z,3.58
2022-08-03T03:15:09.090Z,3.53
2022-08-03T03:20:12.010Z,2.60
2022-08-03T03:25:13.607Z,3.25
2022-08-03T03:30:15.224Z,2.70
2022-08-03T03:35:17.061Z,3.15
2022-08-03T03:40:19.499Z,2.83
2022-08-03T03:45:21.869Z,3.00
2022-08-03T03:50:24.469Z,3.00
2022-08-03T03:55:26.010Z,2.75
2022-08-03T04:00:27.621Z,3.42
2022-08-03T04:05:47.971Z,3.22
2022-08-03T04:10:59.248Z,3.60
2022-08-03T04:16:02.140Z,3.38
2022-08-03T04:21:05.894Z,3.88
2022-08-03T04:26:11.993Z,2.83
2022-08-03T04:31:16.194Z,3.35
2022-08-03T04:36:23.703Z,3.45
2022-08-03T04:41:26.701Z,2.70
2022-08-03T04:46:33.011Z,3.38
2022-08-03T04:51:35.129Z,3.33
2022-08-03T04:56:39.485Z,3.05
2022-08-03T05:01:43.852Z,2.88
2022-08-03T05:06:48.010Z,4.03
2022-08-03T05:11:56.944Z,3.47
2022-08-03T05:16:58.466Z,2.90
2022-08-03T05:22:00.058Z,2.97
2022-08-03T05:27:01.652Z,3.22
2022-08-03T05:32:08.064Z,4.13
2022-08-03T05:37:17.792Z,4.10
2022-08-03T05:42:19.331Z,4.32
2022-08-03T05:47:20.851Z,5.05
2022-08-03T05:52:22.456Z,3.97
2022-08-03T05:57:25.580Z,4.53
2022-08-03T06:02:27.620Z,5.03
2022-08-03T06:07:29.482Z,4.63
2022-08-03T06:12:31.354Z,5.05
2022-08-03T06:17:37.746Z,4.93
2022-08-03T06:22:51.065Z,4.65
2022-08-03T06:27:52.997Z,5.28
2022-08-03T06:32:54.914Z,5.72
2022-08-03T06:37:57.027Z,6.22
2022-08-03T06:42:59.812Z,5.78
2022-08-03T06:48:06.726Z,5.88
2022-08-03T06:58:19.734Z,5.95
2022-08-03T07:03:21.832Z,5.50
2022-08-03T07:08:33.388Z,5.30
2022-08-03T07:13:35.933Z,6.10
2022-08-03T07:18:41.037Z,5.68
2022-08-03T07:23:42.576Z,5.95
2022-08-03T07:28:44.069Z,5.55
2022-08-03T07:33:46.141Z,5.32
2022-08-03T07:38:47.699Z,5.25
2022-08-03T07:43:49.241Z,5.50
2022-08-03T07:48:50.827Z,4.78
2022-08-03T07:53:53.001Z,4.57
2022-08-03T07:58:55.769Z,5.15
2022-08-03T08:03:57.281Z,4.55
2022-08-03T08:09:01.762Z,5.07
2022-08-03T08:14:03.997Z,5.22
2022-08-03T08:19:05.947Z,4.95
2022-08-03T08:24:15.275Z,4.68
2022-08-03T08:29:23.160Z,5.13
2022-08-03T08:34:24.923Z,5.47
2022-08-03T08:39:26.433Z,4.90
2022-08-03T08:44:29.974Z,5.10
2022-08-03T08:49:33.050Z,5.43
2022-08-03T08:54:38.438Z,5.68
2022-08-03T08:59:47.932Z,5.57
2022-08-03T09:04:51.662Z,6.18
2022-08-03T09:10:10.638Z,5.40
2022-08-03T09:15:25.663Z,5.35
2022-08-03T09:20:30.651Z,4.95
2022-08-03T09:25:39.492Z,4.60
2022-08-03T09:30:43.448Z,4.78
2022-08-03T09:35:54.038Z,4.90
2022-08-03T09:41:00.459Z,5.25
2022-08-03T09:51:13.908Z,6.88
2022-08-03T09:56:44.127Z,5.88
2022-08-03T10:01:45.711Z,6.78
2022-08-03T10:07:05.813Z,6.00
2022-08-03T10:12:12.326Z,4.88
2022-08-03T10:17:14.205Z,5.00
2022-08-03T10:22:19.310Z,4.03
2022-08-03T10:27:23.123Z,4.13
2022-08-03T10:32:49.746Z,4.03
2022-08-03T10:43:22.971Z,4.68
2022-08-03T10:48:26.092Z,4.22
2022-08-03T10:53:38.418Z,4.45
2022-08-03T10:58:53.139Z,4.15
2022-08-03T11:03:58.811Z,3.58
2022-08-03T11:09:16.751Z,3.75
2022-08-03T11:14:21.854Z,4.72
2022-08-03T11:19:27.659Z,5.03
2022-08-03T11:24:42.588Z,5.85
2022-08-03T11:30:08.724Z,5.60
2022-08-03T11:35:14.468Z,6.00
2022-08-03T11:40:33.102Z,4.63
2022-08-03T11:45:35.316Z,5.47
2022-08-03T11:50:38.024Z,5.28
2022-08-03T11:55:42.016Z,5.43
2022-08-03T12:00:43.660Z,5.93
2022-08-03T12:05:53.893Z,5.53
2022-08-03T12:10:58.185Z,5.82
2022-08-03T12:15:59.765Z,5.30
2022-08-03T12:21:10.234Z,5.88
2022-08-03T12:26:17.974Z,6.20
2022-08-03T12:31:19.722Z,5.30
2022-08-03T12:36:21.267Z,5.70
2022-08-03T12:41:35.391Z,4.75
2022-08-03T12:46:46.942Z,5.32
2022-08-03T12:51:52.026Z,5.15
2022-08-03T12:57:15.562Z,5.50
2022-08-03T13:02:23.644Z,4.35
2022-08-03T13:07:25.626Z,4.05
2022-08-03T13:12:29.877Z,3.53
2022-08-03T13:17:31.426Z,3.17
2022-08-03T13:22:33.565Z,3.03
2022-08-03T13:28:03.922Z,3.42
2022-08-03T13:32:58.610Z,3.58
2022-08-03T13:38:00.413Z,2.60
2022-08-03T13:43:01.956Z,2.58
2022-08-03T13:48:03.644Z,2.50
2022-08-03T13:53:05.158Z,2.97
2022-08-03T13:58:09.549Z,3.10
2022-08-03T14:03:15.014Z,2.33
2022-08-03T14:08:17.106Z,3.00
2022-08-03T14:13:18.623Z,3.00
2022-08-03T14:18:29.061Z,3.00
2022-08-03T14:23:37.600Z,2.05
2022-08-03T14:28:39.382Z,3.05
2022-08-03T14:33:40.964Z,2.28
2022-08-03T14:38:42.479Z,2.42
2022-08-03T14:44:00.579Z,2.40
2022-08-03T14:50:30.373Z,2.55
2022-08-03T14:54:26.818Z,2.08
2022-08-03T14:59:28.368Z,2.70
2022-08-03T15:04:49.917Z,3.47
2022-08-03T15:09:51.465Z,2.40
2022-08-03T15:14:53.031Z,2.60
2022-08-03T15:20:01.680Z,3.03
2022-08-03T15:26:03.694Z,2.20
2022-08-03T15:30:27.758Z,2.40
2022-08-03T15:35:29.518Z,1.83
2022-08-03T15:40:31.025Z,2.67
2022-08-03T15:45:35.271Z,2.53
2022-08-03T15:50:37.765Z,2.80
2022-08-03T15:55:42.028Z,2.63
2022-08-03T16:00:43.777Z,2.40
2022-08-03T16:05:45.283Z,2.20
2022-08-03T16:10:47.888Z,2.92
2022-08-03T16:15:50.182Z,2.38
2022-08-03T16:20:51.706Z,2.70
2022-08-03T16:25:53.565Z,2.22
2022-08-03T16:30:55.101Z,2.28
2022-08-03T16:35:57.230Z,2.22
2022-08-03T16:40:58.739Z,2.47
2022-08-03T16:46:03.538Z,2.72
2022-08-03T16:51:05.122Z,3.20
2022-08-03T16:56:10.110Z,2.75
2022-08-03T17:01:22.021Z,2.73
2022-08-03T17:06:26.987Z,2.30
2022-08-03T17:11:38.001Z,2.83
2022-08-03T17:16:40.398Z,2.65
2022-08-03T17:22:01.767Z,2.55
2022-08-03T17:27:18.549Z,2.30
2022-08-03T17:32:33.265Z,3.17
2022-08-03T17:37:57.744Z,3.13
2022-08-03T17:42:58.852Z,2.35
2022-08-03T17:48:00.640Z,2.40
2022-08-03T17:53:15.410Z,2.72
2022-08-03T17:58:54.973Z,2.67
2022-08-03T18:04:02.686Z,2.33
2022-08-03T18:10:03.352Z,2.67
2022-08-03T18:14:57.144Z,2.30
2022-08-03T18:20:02.611Z,2.80
2022-08-03T18:25:07.828Z,2.27
2022-08-03T18:30:12.213Z,2.63
2022-08-03T18:35:15.080Z,2.83
2022-08-03T18:40:20.973Z,3.42
2022-08-03T18:45:57.141Z,2.40
2022-08-03T18:51:12.277Z,2.58
2022-08-03T18:56:43.130Z,2.78
2022-08-03T19:01:58.199Z,2.60
2022-08-03T19:07:09.196Z,2.80
2022-08-03T19:12:37.535Z,2.00
2022-08-03T19:17:50.150Z,2.30
2022-08-03T19:22:56.647Z,1.95
2022-08-03T19:28:00.546Z,2.63
2022-08-03T19:33:10.306Z,2.67
2022-08-03T19:38:12.119Z,3.05
2022-08-03T19:43:21.857Z,2.60
2022-08-03T19:48:29.386Z,1.90
2022-08-03T19:53:36.560Z,2.28
2022-08-03T19:58:45.342Z,2.53
2022-08-03T20:03:55.063Z,2.80
2022-08-03T20:08:58.701Z,3.22
2022-08-03T20:14:01.659Z,2.70
2022-08-03T20:19:03.183Z,3.20
2022-08-03T20:24:32.660Z,2.80
2022-08-03T20:30:06.429Z,2.45
2022-08-03T20:35:09.956Z,2.10
2022-08-03T20:40:13.882Z,2.25
2022-08-03T20:46:01.009Z,1.85
2022-08-03T20:50:40.712Z,1.70
2022-08-03T20:55:48.005Z,2.45
2022-08-03T21:01:04.346Z,2.33
2022-08-03T21:06:07.707Z,1.95
2022-08-03T21:11:18.004Z,2.20
2022-08-03T21:16:21.456Z,2.00
2022-08-03T21:21:24.009Z,1.40
2022-08-03T21:26:27.038Z,1.90
2022-08-03T21:31:28.712Z,2.17
2022-08-03T21:36:32.970Z,2.65
2022-08-03T21:41:36.005Z,2.40
2022-08-03T21:46:40.452Z,2.13
2022-08-03T21:51:42.316Z,1.70
2022-08-03T21:56:48.284Z,1.92
2022-08-03T22:01:55.389Z,2.00
2022-08-03T22:07:00.980Z,1.92
2022-08-03T22:12:03.016Z,2.40
2022-08-03T22:17:07.175Z,2.35
2022-08-03T22:22:13.746Z,1.88
2022-08-03T22:27:32.193Z,1.95
2022-08-03T22:32:33.779Z,2.17
2022-08-03T22:37:36.087Z,2.08
2022-08-03T22:42:39.284Z,2.08
2022-08-03T22:47:41.657Z,1.70
2022-08-03T22:52:44.326Z,2.95
2022-08-03T22:57:45.958Z,2.08
2022-08-03T23:03:00.366Z,2.00
2022-08-03T23:08:03.886Z,2.40
2022-08-03T23:13:06.763Z,2.00
2022-08-03T23:18:09.451Z,2.10
2022-08-03T23:23:11.293Z,2.30
2022-08-03T23:28:18.155Z,2.13
2022-08-03T23:33:21.569Z,2.60
2022-08-03T23:38:24.921Z,2.72
2022-08-03T23:43:51.381Z,2.88
2022-08-03T23:48:50.758Z,2.90
2022-08-03T23:54:01.933Z,2.30
2022-08-03T23:59:12.681Z,2.55
